createdAt,value
2017-11-19T00:00:36.683Z,0
2017-11-19T00:01:17.264Z,0
2017-11-19T00:01:57.812Z,0
2017-11-19T00:02:38.388Z,0
2017-11-19T00:03:18.948Z,0
2017-11-19T00:03:59.544Z,0
2017-11-19T00:04:40.103Z,0
2017-11-19T00:05:20.669Z,0
2017-11-19T00:06:01.235Z,0
2017-11-19T00:06:41.808Z,0
2017-11-19T00:07:22.392Z,0
2017-11-19T00:08:02.973Z,0
2017-11-19T00:08:43.536Z,0
2017-11-19T00:09:24.109Z,0
2017-11-19T00:10:04.672Z,0
2017-11-19T00:10:45.240Z,0
2017-11-19T00:11:25.835Z,0
2017-11-19T00:12:06.408Z,0
2017-11-19T00:12:47.061Z,0
2017-11-19T00:13:27.627Z,0
2017-11-19T00:14:08.229Z,0
2017-11-19T00:14:48.794Z,0
2017-11-19T00:15:29.362Z,0
2017-11-19T00:16:09.971Z,0
2017-11-19T00:16:50.542Z,0
2017-11-19T00:17:31.118Z,0
2017-11-19T00:18:11.723Z,0
2017-11-19T00:18:52.305Z,0
2017-11-19T00:19:32.884Z,0
2017-11-19T00:20:13.481Z,0
2017-11-19T00:20:54.065Z,0
2017-11-19T00:21:34.668Z,0
2017-11-19T00:22:15.251Z,0
2017-11-19T00:22:55.814Z,0
2017-11-19T00:23:36.577Z,0
2017-11-19T00:24:17.157Z,0
2017-11-19T00:24:57.791Z,0
2017-11-19T00:25:38.451Z,0
2017-11-19T00:26:19.019Z,0
2017-11-19T00:26:59.697Z,0
2017-11-19T00:27:40.265Z,0
2017-11-19T00:28:20.855Z,0
2017-11-19T00:29:01.418Z,0
2017-11-19T00:29:42.019Z,0
2017-11-19T00:30:22.618Z,0
2017-11-19T00:31:03.234Z,0
2017-11-19T00:31:43.856Z,0
2017-11-19T00:32:24.445Z,0
2017-11-19T00:33:05.236Z,0
2017-11-19T00:33:45.829Z,0
2017-11-19T00:34:26.609Z,0
2017-11-19T00:35:07.230Z,0
2017-11-19T00:35:48.057Z,0
2017-11-19T00:36:28.708Z,0
2017-11-19T00:37:09.326Z,0
2017-11-19T00:37:49.981Z,0
2017-11-19T00:38:30.657Z,0
2017-11-19T00:39:11.402Z,0
2017-11-19T00:39:52.031Z,0
2017-11-19T00:40:32.611Z,0
2017-11-19T00:41:13.215Z,0
2017-11-19T00:41:53.812Z,0
2017-11-19T00:42:34.467Z,0
2017-11-19T00:43:15.060Z,0
2017-11-19T00:43:55.871Z,0
2017-11-19T00:44:36.539Z,0
2017-11-19T00:45:17.112Z,0
2017-11-19T00:45:57.790Z,0
2017-11-19T00:46:38.399Z,0
2017-11-19T00:47:19.014Z,0
2017-11-19T00:47:59.600Z,0
2017-11-19T00:48:40.180Z,0
2017-11-19T00:49:20.779Z,0
2017-11-19T00:50:01.385Z,0
2017-11-19T00:50:41.949Z,0
2017-11-19T00:51:22.541Z,0
2017-11-19T00:52:03.129Z,0
2017-11-19T00:52:43.696Z,0
2017-11-19T00:53:24.272Z,0
2017-11-19T00:54:04.850Z,0
2017-11-19T00:54:45.437Z,0
2017-11-19T00:55:26.029Z,0
2017-11-19T00:56:06.685Z,0
2017-11-19T00:56:47.296Z,0
2017-11-19T00:57:27.917Z,0
2017-11-19T00:58:08.522Z,0
2017-11-19T00:58:49.170Z,0
2017-11-19T00:59:29.763Z,0
2017-11-19T01:00:10.369Z,0
2017-11-19T01:00:50.958Z,0
2017-11-19T01:01:31.563Z,0
2017-11-19T01:02:12.176Z,0
2017-11-19T01:02:52.765Z,0
2017-11-19T01:03:33.369Z,0
2017-11-19T01:04:13.950Z,0
2017-11-19T01:04:54.559Z,0
2017-11-19T01:05:35.170Z,0
2017-11-19T01:06:15.768Z,0
2017-11-19T01:06:56.406Z,0
2017-11-19T01:07:37.089Z,0
2017-11-19T01:08:17.704Z,0
2017-11-19T01:08:58.289Z,0
2017-11-19T01:09:38.906Z,0
2017-11-19T01:10:19.620Z,0
2017-11-19T01:11:00.221Z,0
2017-11-19T01:11:40.816Z,0
2017-11-19T01:12:21.446Z,0
2017-11-19T01:13:02.102Z,0
2017-11-19T01:13:42.756Z,0
2017-11-19T01:14:23.343Z,0
2017-11-19T01:15:03.958Z,0
2017-11-19T01:15:44.561Z,0
2017-11-19T01:16:25.139Z,0
2017-11-19T01:17:05.745Z,0
2017-11-19T01:17:46.808Z,0
2017-11-19T01:18:27.392Z,0
2017-11-19T01:19:07.990Z,0
2017-11-19T01:19:48.556Z,0
2017-11-19T01:20:29.140Z,0
2017-11-19T01:21:09.736Z,0
2017-11-19T01:21:50.330Z,0
2017-11-19T01:22:30.927Z,0
2017-11-19T01:23:11.498Z,0
2017-11-19T01:23:52.082Z,0
2017-11-19T01:24:32.653Z,0
2017-11-19T01:25:13.217Z,0
2017-11-19T01:25:53.782Z,0
2017-11-19T01:26:34.354Z,0
2017-11-19T01:27:14.922Z,0
2017-11-19T01:27:55.520Z,0
2017-11-19T01:28:36.084Z,0
2017-11-19T01:29:16.662Z,0
2017-11-19T01:29:57.227Z,0
2017-11-19T01:30:37.808Z,0
2017-11-19T01:31:18.368Z,0
2017-11-19T01:31:58.931Z,0
2017-11-19T01:32:39.499Z,0
2017-11-19T01:33:20.086Z,0
2017-11-19T01:34:00.667Z,0
2017-11-19T01:34:41.219Z,0
2017-11-19T01:35:21.841Z,0
2017-11-19T01:36:02.420Z,0
2017-11-19T01:36:42.977Z,0
2017-11-19T01:37:23.535Z,0
2017-11-19T01:38:04.097Z,0
2017-11-19T01:38:44.683Z,0
2017-11-19T01:39:25.279Z,0
2017-11-19T01:40:05.829Z,0
2017-11-19T01:40:46.392Z,0
2017-11-19T01:41:26.972Z,0
2017-11-19T01:42:07.542Z,0
2017-11-19T01:42:48.246Z,0
2017-11-19T01:43:28.810Z,0
2017-11-19T01:44:09.420Z,0
2017-11-19T01:44:49.949Z,0
2017-11-19T01:45:30.514Z,0
2017-11-19T01:46:11.097Z,0
2017-11-19T01:46:51.703Z,0
2017-11-19T01:47:32.256Z,0
2017-11-19T01:48:12.847Z,0
2017-11-19T01:48:53.401Z,0
2017-11-19T01:49:33.958Z,0
2017-11-19T01:50:14.542Z,0
2017-11-19T01:50:55.111Z,0
2017-11-19T01:51:35.684Z,0
2017-11-19T01:52:16.270Z,0
2017-11-19T01:52:56.836Z,0
2017-11-19T01:53:37.420Z,0
2017-11-19T01:54:18.014Z,0
2017-11-19T01:54:58.603Z,0
2017-11-19T01:55:39.177Z,0
2017-11-19T01:56:19.746Z,0
2017-11-19T01:57:00.326Z,0
2017-11-19T01:57:40.930Z,0
2017-11-19T01:58:21.477Z,0
2017-11-19T01:59:02.059Z,0
2017-11-19T01:59:42.625Z,0
2017-11-19T02:00:23.223Z,0
2017-11-19T02:01:03.785Z,0
2017-11-19T02:01:44.393Z,0
2017-11-19T02:02:24.969Z,0
2017-11-19T02:03:05.590Z,0
2017-11-19T02:03:46.169Z,0
2017-11-19T02:04:26.731Z,0
2017-11-19T02:05:07.400Z,0
2017-11-19T02:05:47.961Z,0
2017-11-19T02:06:28.531Z,0
2017-11-19T02:07:09.101Z,0
2017-11-19T02:07:49.685Z,0
2017-11-19T02:08:30.243Z,0
2017-11-19T02:09:10.851Z,0
2017-11-19T02:09:51.444Z,0
2017-11-19T02:10:32.019Z,0
2017-11-19T02:11:12.596Z,0
2017-11-19T02:11:53.156Z,0
2017-11-19T02:12:33.745Z,0
2017-11-19T02:13:14.318Z,0
2017-11-19T02:13:54.896Z,0
2017-11-19T02:14:35.477Z,0
2017-11-19T02:15:16.062Z,0
2017-11-19T02:15:56.675Z,0
2017-11-19T02:16:37.259Z,0
2017-11-19T02:17:17.866Z,0
2017-11-19T02:17:58.427Z,0
2017-11-19T02:18:39.010Z,0
2017-11-19T02:19:19.586Z,0
2017-11-19T02:20:00.172Z,0
2017-11-19T02:20:40.769Z,0
2017-11-19T02:21:21.323Z,0
2017-11-19T02:22:01.899Z,0
2017-11-19T02:22:42.453Z,0
2017-11-19T02:23:23.018Z,0
2017-11-19T02:24:03.596Z,0
2017-11-19T02:24:44.169Z,0
2017-11-19T02:25:24.737Z,0
2017-11-19T02:26:05.310Z,0
2017-11-19T02:26:45.888Z,0
2017-11-19T02:27:26.454Z,0
2017-11-19T02:28:07.027Z,0
2017-11-19T02:28:47.632Z,0
2017-11-19T02:29:28.201Z,0
2017-11-19T02:30:08.785Z,0
2017-11-19T02:30:49.404Z,0
2017-11-19T02:31:30.088Z,0
2017-11-19T02:32:10.655Z,0
2017-11-19T02:32:51.222Z,0
2017-11-19T02:33:31.792Z,0
2017-11-19T02:34:12.372Z,0
2017-11-19T02:34:52.924Z,0
2017-11-19T02:35:33.553Z,0
2017-11-19T02:36:14.140Z,0
2017-11-19T02:36:54.689Z,0
2017-11-19T02:37:35.287Z,0
2017-11-19T02:38:15.881Z,0
2017-11-19T02:38:56.442Z,0
2017-11-19T02:39:37.017Z,0
2017-11-19T02:40:17.572Z,0
2017-11-19T02:40:58.135Z,0
2017-11-19T02:41:38.705Z,0
2017-11-19T02:42:19.269Z,0
2017-11-19T02:42:59.843Z,0
2017-11-19T02:43:40.464Z,0
2017-11-19T02:44:21.063Z,0
2017-11-19T02:45:01.665Z,0
2017-11-19T02:45:42.256Z,0
2017-11-19T02:46:22.816Z,0
2017-11-19T02:47:03.379Z,0
2017-11-19T02:47:43.977Z,0
2017-11-19T02:48:24.560Z,0
2017-11-19T02:49:05.121Z,0
2017-11-19T02:49:45.686Z,0
2017-11-19T02:50:26.254Z,0
2017-11-19T02:51:06.846Z,0
2017-11-19T02:51:47.415Z,0
2017-11-19T02:52:27.988Z,0
2017-11-19T02:53:08.563Z,0
2017-11-19T02:53:49.166Z,0
2017-11-19T02:54:29.728Z,0
2017-11-19T02:55:10.320Z,0
2017-11-19T02:55:50.922Z,0
2017-11-19T02:56:31.500Z,0
2017-11-19T02:57:12.087Z,0
2017-11-19T02:57:52.692Z,0
2017-11-19T02:58:33.264Z,0
2017-11-19T02:59:13.823Z,0
2017-11-19T02:59:54.388Z,0
2017-11-19T03:00:34.947Z,0
2017-11-19T03:01:15.532Z,0
2017-11-19T03:01:56.102Z,0
2017-11-19T03:02:36.695Z,0
2017-11-19T03:03:17.275Z,0
2017-11-19T03:03:57.823Z,0
2017-11-19T03:04:38.390Z,0
2017-11-19T03:05:18.958Z,0
2017-11-19T03:05:59.596Z,0
2017-11-19T03:06:40.184Z,0
2017-11-19T03:07:20.774Z,0
2017-11-19T03:08:01.335Z,0
2017-11-19T03:08:41.908Z,0
2017-11-19T03:09:22.506Z,0
2017-11-19T03:10:03.105Z,0
2017-11-19T03:10:43.675Z,0
2017-11-19T03:11:24.265Z,0
2017-11-19T03:12:04.861Z,0
2017-11-19T03:12:45.470Z,0
2017-11-19T03:13:26.074Z,0
2017-11-19T03:14:06.654Z,0
2017-11-19T03:14:47.217Z,0
2017-11-19T03:15:27.804Z,0
2017-11-19T03:16:08.364Z,0
2017-11-19T03:16:48.918Z,0
2017-11-19T03:17:29.524Z,0
2017-11-19T03:18:10.106Z,0
2017-11-19T03:18:50.689Z,0
2017-11-19T03:19:31.263Z,0
2017-11-19T03:20:11.826Z,0
2017-11-19T03:20:52.418Z,0
2017-11-19T03:21:32.987Z,0
2017-11-19T03:22:13.540Z,0
2017-11-19T03:22:54.117Z,0
2017-11-19T03:23:34.675Z,0
2017-11-19T03:24:15.226Z,0
2017-11-19T03:24:55.812Z,0
2017-11-19T03:25:36.408Z,0
2017-11-19T03:26:16.976Z,0
2017-11-19T03:26:57.539Z,0
2017-11-19T03:27:38.117Z,0
2017-11-19T03:28:18.685Z,0
2017-11-19T03:28:59.263Z,0
2017-11-19T03:29:39.844Z,0
2017-11-19T03:30:20.407Z,0
2017-11-19T03:31:00.980Z,0
2017-11-19T03:31:41.552Z,0
2017-11-19T03:32:22.146Z,0
2017-11-19T03:33:02.743Z,0
2017-11-19T03:33:43.318Z,0
2017-11-19T03:34:23.899Z,0
2017-11-19T03:35:04.471Z,0
2017-11-19T03:35:45.029Z,0
2017-11-19T03:36:25.606Z,0
2017-11-19T03:37:06.205Z,0
2017-11-19T03:37:46.775Z,0
2017-11-19T03:38:27.348Z,0
2017-11-19T03:39:07.940Z,0
2017-11-19T03:39:48.561Z,0
2017-11-19T03:40:29.193Z,0
2017-11-19T03:41:09.742Z,0
2017-11-19T03:41:50.339Z,0
2017-11-19T03:42:30.915Z,0
2017-11-19T03:43:11.494Z,0
2017-11-19T03:43:52.052Z,0
2017-11-19T03:44:32.613Z,0
2017-11-19T03:45:13.164Z,0
2017-11-19T03:45:53.748Z,0
2017-11-19T03:46:34.318Z,0
2017-11-19T03:47:14.886Z,0
2017-11-19T03:47:55.460Z,0
2017-11-19T03:48:36.010Z,0
2017-11-19T03:49:16.576Z,0
2017-11-19T03:49:57.172Z,0
2017-11-19T03:50:37.750Z,0
2017-11-19T03:51:18.305Z,0
2017-11-19T03:51:58.875Z,0
2017-11-19T03:52:39.441Z,0
2017-11-19T03:53:20.029Z,0
2017-11-19T03:54:00.598Z,0
2017-11-19T03:54:41.159Z,0
2017-11-19T03:55:21.715Z,0
2017-11-19T03:56:02.293Z,0
2017-11-19T03:56:42.885Z,0
2017-11-19T03:57:23.473Z,0
2017-11-19T03:58:04.060Z,0
2017-11-19T03:58:44.641Z,0
2017-11-19T03:59:25.246Z,0
2017-11-19T04:00:05.804Z,0
2017-11-19T04:00:46.389Z,0
2017-11-19T04:01:26.991Z,0
2017-11-19T04:02:07.543Z,0
2017-11-19T04:02:48.106Z,0
2017-11-19T04:03:28.695Z,0
2017-11-19T04:04:09.272Z,0
2017-11-19T04:04:49.839Z,0
2017-11-19T04:05:30.395Z,0
2017-11-19T04:06:10.958Z,0
2017-11-19T04:06:51.518Z,0
2017-11-19T04:07:32.105Z,0
2017-11-19T04:08:12.676Z,0
2017-11-19T04:08:53.232Z,0
2017-11-19T04:09:33.840Z,0
2017-11-19T04:10:14.402Z,0
2017-11-19T04:10:54.997Z,0
2017-11-19T04:11:35.569Z,0
2017-11-19T04:12:16.190Z,0
2017-11-19T04:12:56.808Z,0
2017-11-19T04:13:37.357Z,0
2017-11-19T04:14:17.931Z,0
2017-11-19T04:14:58.500Z,0
2017-11-19T04:15:39.085Z,0
2017-11-19T04:16:19.668Z,0
2017-11-19T04:17:00.236Z,0
2017-11-19T04:17:40.846Z,0
2017-11-19T04:18:21.405Z,0
2017-11-19T04:19:01.981Z,0
2017-11-19T04:19:42.570Z,0
2017-11-19T04:20:23.110Z,0
2017-11-19T04:21:03.734Z,0
2017-11-19T04:21:44.325Z,0
2017-11-19T04:22:24.923Z,0
2017-11-19T04:23:05.479Z,0
2017-11-19T04:23:46.061Z,0
2017-11-19T04:24:26.717Z,0
2017-11-19T04:25:07.283Z,0
2017-11-19T04:25:47.858Z,0
2017-11-19T04:26:28.474Z,0
2017-11-19T04:27:09.045Z,0
2017-11-19T04:27:49.608Z,0
2017-11-19T04:28:30.179Z,0
2017-11-19T04:29:10.766Z,0
2017-11-19T04:29:51.354Z,0
2017-11-19T04:30:31.957Z,0
2017-11-19T04:31:12.538Z,0
2017-11-19T04:31:53.097Z,0
2017-11-19T04:32:33.703Z,0
2017-11-19T04:33:14.265Z,0
2017-11-19T04:33:54.835Z,0
2017-11-19T04:34:35.398Z,0
2017-11-19T04:35:15.971Z,0
2017-11-19T04:35:56.532Z,0
2017-11-19T04:36:37.105Z,0
2017-11-19T04:37:17.685Z,0
2017-11-19T04:37:58.286Z,0
2017-11-19T04:38:38.910Z,0
2017-11-19T04:39:19.507Z,0
2017-11-19T04:40:00.097Z,0
2017-11-19T04:40:40.692Z,0
2017-11-19T04:41:21.300Z,0
2017-11-19T04:42:01.928Z,0
2017-11-19T04:42:42.500Z,0
2017-11-19T04:43:23.061Z,0
2017-11-19T04:44:03.711Z,0
2017-11-19T04:44:44.260Z,0
2017-11-19T04:45:24.824Z,0
2017-11-19T04:46:05.395Z,0
2017-11-19T04:46:45.968Z,0
2017-11-19T04:47:26.529Z,0
2017-11-19T04:48:07.105Z,0
2017-11-19T04:48:47.682Z,0
2017-11-19T04:49:28.274Z,0
2017-11-19T04:50:08.865Z,0
2017-11-19T04:50:49.426Z,0
2017-11-19T04:51:30.032Z,0
2017-11-19T04:52:10.599Z,0
2017-11-19T04:52:51.179Z,0
2017-11-19T04:53:31.762Z,0
2017-11-19T04:54:12.335Z,0
2017-11-19T04:54:52.913Z,0
2017-11-19T04:55:33.471Z,0
2017-11-19T04:56:14.069Z,0
2017-11-19T04:56:54.656Z,0
2017-11-19T04:57:35.263Z,0
2017-11-19T04:58:15.812Z,0
2017-11-19T04:58:56.407Z,0
2017-11-19T04:59:36.998Z,0
2017-11-19T05:00:17.566Z,0
2017-11-19T05:00:58.142Z,0
2017-11-19T05:01:38.757Z,0
2017-11-19T05:02:19.342Z,0
2017-11-19T05:02:59.921Z,0
2017-11-19T05:03:40.487Z,0
2017-11-19T05:04:21.061Z,0
2017-11-19T05:05:01.611Z,0
2017-11-19T05:05:42.213Z,0
2017-11-19T05:06:22.784Z,0
2017-11-19T05:07:03.368Z,0
2017-11-19T05:07:43.933Z,0
2017-11-19T05:08:24.506Z,0
2017-11-19T05:09:05.090Z,0
2017-11-19T05:09:45.673Z,0
2017-11-19T05:10:26.295Z,0
2017-11-19T05:11:06.868Z,0
2017-11-19T05:11:47.439Z,0
2017-11-19T05:12:28.035Z,0
2017-11-19T05:13:08.705Z,0
2017-11-19T05:13:49.296Z,0
2017-11-19T05:14:29.917Z,0
2017-11-19T05:15:10.488Z,0
2017-11-19T05:15:51.091Z,0
2017-11-19T05:16:31.631Z,0
2017-11-19T05:17:12.233Z,0
2017-11-19T05:17:52.784Z,0
2017-11-19T05:18:33.354Z,0
2017-11-19T05:19:13.954Z,0
2017-11-19T05:19:54.530Z,0
2017-11-19T05:20:35.112Z,0
2017-11-19T05:21:15.695Z,0
2017-11-19T05:21:56.263Z,0
2017-11-19T05:22:36.817Z,0
2017-11-19T05:23:17.383Z,0
2017-11-19T05:23:57.945Z,0
2017-11-19T05:24:38.522Z,0
2017-11-19T05:25:19.097Z,0
2017-11-19T05:25:59.659Z,0
2017-11-19T05:26:40.223Z,0
2017-11-19T05:27:20.800Z,0
2017-11-19T05:28:01.374Z,0
2017-11-19T05:28:41.942Z,0
2017-11-19T05:29:22.541Z,0
2017-11-19T05:30:03.091Z,0
2017-11-19T05:30:43.676Z,0
2017-11-19T05:31:24.276Z,0
2017-11-19T05:32:04.875Z,0
2017-11-19T05:32:45.458Z,0
2017-11-19T05:33:26.040Z,0
2017-11-19T05:34:06.608Z,0
2017-11-19T05:34:47.199Z,0
2017-11-19T05:35:27.786Z,0
2017-11-19T05:36:08.368Z,0
2017-11-19T05:36:48.952Z,0
2017-11-19T05:37:29.543Z,0
2017-11-19T05:38:10.133Z,0
2017-11-19T05:38:50.742Z,0
2017-11-19T05:39:31.327Z,0
2017-11-19T05:40:11.918Z,0
2017-11-19T05:40:52.466Z,0
2017-11-19T05:41:33.034Z,0
2017-11-19T05:42:13.599Z,0
2017-11-19T05:42:54.178Z,0
2017-11-19T05:43:34.756Z,0
2017-11-19T05:44:15.318Z,0
2017-11-19T05:44:55.891Z,0
2017-11-19T05:45:36.478Z,0
2017-11-19T05:46:17.047Z,0
2017-11-19T05:46:57.637Z,0
2017-11-19T05:47:38.210Z,0
2017-11-19T05:48:18.822Z,0
2017-11-19T05:48:59.450Z,0
2017-11-19T05:49:40.018Z,0
2017-11-19T05:50:20.603Z,0
2017-11-19T05:51:01.165Z,0
2017-11-19T05:51:41.737Z,0
2017-11-19T05:52:22.314Z,0
2017-11-19T05:53:02.883Z,0
2017-11-19T05:53:43.447Z,0
2017-11-19T05:54:24.009Z,0
2017-11-19T05:55:04.587Z,0
2017-11-19T05:55:45.162Z,0
2017-11-19T05:56:25.726Z,0
2017-11-19T05:57:06.324Z,0
2017-11-19T05:57:46.903Z,0
2017-11-19T05:58:27.486Z,0
2017-11-19T05:59:08.043Z,0
2017-11-19T05:59:48.629Z,0
2017-11-19T06:00:29.198Z,0
2017-11-19T06:01:09.773Z,0
2017-11-19T06:01:50.389Z,0
2017-11-19T06:02:30.983Z,0
2017-11-19T06:03:11.573Z,0
2017-11-19T06:03:52.131Z,0
2017-11-19T06:04:32.714Z,0
2017-11-19T06:05:13.285Z,0
2017-11-19T06:05:53.901Z,0
2017-11-19T06:06:34.466Z,0
2017-11-19T06:07:15.132Z,0
2017-11-19T06:07:55.704Z,0
2017-11-19T06:08:36.274Z,0
2017-11-19T06:09:16.840Z,4
2017-11-19T06:09:57.400Z,4
2017-11-19T06:10:37.980Z,4
2017-11-19T06:11:18.559Z,4
2017-11-19T06:11:59.140Z,0
2017-11-19T06:12:39.750Z,4
2017-11-19T06:13:20.352Z,8
2017-11-19T06:14:00.930Z,4
2017-11-19T06:14:41.512Z,4
2017-11-19T06:15:22.065Z,8
2017-11-19T06:16:02.668Z,8
2017-11-19T06:16:43.263Z,4
2017-11-19T06:17:23.840Z,8
2017-11-19T06:18:04.415Z,8
2017-11-19T06:18:44.979Z,8
2017-11-19T06:19:25.543Z,8
2017-11-19T06:20:06.127Z,12
2017-11-19T06:20:46.702Z,16
2017-11-19T06:21:27.285Z,16
2017-11-19T06:22:07.865Z,20
2017-11-19T06:22:48.413Z,20
2017-11-19T06:23:28.972Z,16
2017-11-19T06:24:09.612Z,16
2017-11-19T06:24:50.200Z,16
2017-11-19T06:25:30.800Z,16
2017-11-19T06:26:11.374Z,16
2017-11-19T06:26:51.955Z,20
2017-11-19T06:27:32.530Z,20
2017-11-19T06:28:13.126Z,24
2017-11-19T06:28:53.732Z,28
2017-11-19T06:29:34.297Z,32
2017-11-19T06:30:14.874Z,36
2017-11-19T06:30:55.470Z,56
2017-11-19T06:31:36.037Z,80
2017-11-19T06:32:16.600Z,76
2017-11-19T06:32:57.163Z,56
2017-11-19T06:33:37.765Z,64
2017-11-19T06:34:18.387Z,56
2017-11-19T06:34:58.972Z,64
2017-11-19T06:35:39.539Z,68
2017-11-19T06:36:20.156Z,72
2017-11-19T06:37:00.747Z,60
2017-11-19T06:37:41.343Z,68
2017-11-19T06:38:21.927Z,68
2017-11-19T06:39:02.500Z,64
2017-11-19T06:39:43.072Z,60
2017-11-19T06:40:23.639Z,68
2017-11-19T06:41:04.187Z,68
2017-11-19T06:41:44.751Z,72
2017-11-19T06:42:25.339Z,76
2017-11-19T06:43:05.918Z,80
2017-11-19T06:43:46.494Z,68
2017-11-19T06:44:27.059Z,64
2017-11-19T06:45:07.619Z,76
2017-11-19T06:45:48.192Z,68
2017-11-19T06:46:28.762Z,72
2017-11-19T06:47:09.328Z,88
2017-11-19T06:47:49.905Z,88
2017-11-19T06:48:30.476Z,96
2017-11-19T06:49:11.066Z,84
2017-11-19T06:49:51.660Z,84
2017-11-19T06:50:32.229Z,88
2017-11-19T06:51:12.793Z,88
2017-11-19T06:51:53.358Z,96
2017-11-19T06:52:33.920Z,112
2017-11-19T06:53:14.488Z,124
2017-11-19T06:53:55.058Z,124
2017-11-19T06:54:35.637Z,116
2017-11-19T06:55:16.264Z,152
2017-11-19T06:55:56.812Z,136
2017-11-19T06:56:37.473Z,140
2017-11-19T06:57:17.974Z,152
2017-11-19T06:57:58.533Z,148
2017-11-19T06:58:39.126Z,144
2017-11-19T06:59:19.734Z,192
2017-11-19T07:00:00.298Z,172
2017-11-19T07:00:40.906Z,220
2017-11-19T07:01:21.487Z,284
2017-11-19T07:02:02.078Z,280
2017-11-19T07:02:42.652Z,252
2017-11-19T07:03:23.242Z,300
2017-11-19T07:04:04.078Z,388
2017-11-19T07:04:52.148Z,420
2017-11-19T07:05:32.778Z,516
2017-11-19T07:06:13.371Z,544
2017-11-19T07:06:53.965Z,564
2017-11-19T07:07:34.578Z,444
2017-11-19T07:08:15.146Z,460
2017-11-19T07:08:55.701Z,584
2017-11-19T07:09:36.268Z,692
2017-11-19T07:10:16.862Z,740
2017-11-19T07:10:57.443Z,844
2017-11-19T07:11:38.018Z,804
2017-11-19T07:12:18.586Z,880
2017-11-19T07:12:59.148Z,544
2017-11-19T07:13:39.715Z,416
2017-11-19T07:14:20.298Z,340
2017-11-19T07:15:00.886Z,268
2017-11-19T07:15:41.457Z,256
2017-11-19T07:16:22.052Z,256
2017-11-19T07:17:02.681Z,272
2017-11-19T07:17:43.259Z,296
2017-11-19T07:18:23.850Z,300
2017-11-19T07:19:04.461Z,304
2017-11-19T07:19:45.062Z,312
2017-11-19T07:20:25.624Z,296
2017-11-19T07:21:06.195Z,320
2017-11-19T07:21:46.786Z,304
2017-11-19T07:22:27.374Z,272
2017-11-19T07:23:07.965Z,316
2017-11-19T07:23:48.541Z,360
2017-11-19T07:24:29.112Z,340
2017-11-19T07:25:09.685Z,404
2017-11-19T07:25:50.253Z,460
2017-11-19T07:26:30.821Z,480
2017-11-19T07:27:11.405Z,536
2017-11-19T07:27:51.974Z,532
2017-11-19T07:28:32.537Z,524
2017-11-19T07:29:13.097Z,568
2017-11-19T07:29:53.676Z,732
2017-11-19T07:30:34.275Z,644
2017-11-19T07:31:14.845Z,540
2017-11-19T07:31:55.436Z,504
2017-11-19T07:32:36.065Z,520
2017-11-19T07:33:16.651Z,476
2017-11-19T07:33:57.239Z,444
2017-11-19T07:34:37.810Z,520
2017-11-19T07:35:18.377Z,592
2017-11-19T07:35:58.943Z,608
2017-11-19T07:36:39.511Z,748
2017-11-19T07:37:20.118Z,656
2017-11-19T07:38:00.702Z,776
2017-11-19T07:38:41.295Z,596
2017-11-19T07:39:21.867Z,708
2017-11-19T07:40:02.410Z,884
2017-11-19T07:40:42.977Z,1084
2017-11-19T07:41:23.575Z,920
2017-11-19T07:42:04.164Z,968
2017-11-19T07:42:44.774Z,1068
2017-11-19T07:43:25.544Z,1300
2017-11-19T07:44:05.960Z,1376
2017-11-19T07:44:46.567Z,1624
2017-11-19T07:45:27.145Z,1896
2017-11-19T07:46:07.719Z,2572
2017-11-19T07:46:48.360Z,2376
2017-11-19T07:47:29.042Z,1956
2017-11-19T07:48:09.650Z,1740
2017-11-19T07:48:50.241Z,2320
2017-11-19T07:49:30.819Z,2664
2017-11-19T07:50:11.384Z,2980
2017-11-19T07:50:51.971Z,3156
2017-11-19T07:51:32.557Z,2996
2017-11-19T07:52:13.157Z,3688
2017-11-19T07:52:53.733Z,4100
2017-11-19T07:53:34.339Z,3668
2017-11-19T07:54:14.913Z,2292
2017-11-19T07:54:55.480Z,2484
2017-11-19T07:55:36.062Z,2396
2017-11-19T07:56:16.609Z,1872
2017-11-19T07:56:57.815Z,2240
2017-11-19T07:57:38.607Z,2240
2017-11-19T07:58:19.176Z,2272
2017-11-19T07:59:00.201Z,2284
2017-11-19T07:59:41.220Z,1584
2017-11-19T08:00:22.385Z,1668
2017-11-19T08:01:03.072Z,1492
2017-11-19T08:01:43.640Z,1456
2017-11-19T08:02:24.230Z,1404
2017-11-19T08:03:04.825Z,1544
2017-11-19T08:03:45.402Z,1484
2017-11-19T08:04:26.065Z,2204
2017-11-19T08:05:07.482Z,2204
2017-11-19T08:05:48.343Z,1936
2017-11-19T08:06:29.225Z,1392
2017-11-19T08:07:10.278Z,1176
2017-11-19T08:07:51.307Z,1392
2017-11-19T08:08:31.910Z,1464
2017-11-19T08:09:12.484Z,1616
2017-11-19T08:09:53.497Z,1600
2017-11-19T08:10:34.294Z,1792
2017-11-19T08:11:15.154Z,2140
2017-11-19T08:11:55.735Z,2532
2017-11-19T08:12:36.458Z,2780
2017-11-19T08:13:17.054Z,2972
2017-11-19T08:13:58.657Z,3492
2017-11-19T08:14:39.361Z,3476
2017-11-19T08:15:19.943Z,2556
2017-11-19T08:16:00.522Z,2836
2017-11-19T08:16:41.095Z,3584
2017-11-19T08:17:21.689Z,4192
2017-11-19T08:18:02.274Z,3612
2017-11-19T08:18:42.849Z,2512
2017-11-19T08:19:23.421Z,2288
2017-11-19T08:20:04.027Z,2416
2017-11-19T08:20:48.370Z,1984
2017-11-19T08:21:32.506Z,2332
2017-11-19T08:22:13.078Z,1900
2017-11-19T08:22:53.670Z,1620
2017-11-19T08:23:34.260Z,1464
2017-11-19T08:24:14.853Z,1452
2017-11-19T08:24:55.422Z,1388
2017-11-19T08:25:36.000Z,1476
2017-11-19T08:26:17.174Z,1308
2017-11-19T08:26:57.732Z,1432
2017-11-19T08:27:38.345Z,1384
2017-11-19T08:28:18.947Z,1704
2017-11-19T08:28:59.535Z,1772
2017-11-19T08:29:40.127Z,1648
2017-11-19T08:30:20.722Z,1340
2017-11-19T08:31:01.297Z,1672
2017-11-19T08:31:41.888Z,1880
2017-11-19T08:32:22.457Z,1824
2017-11-19T08:33:03.059Z,1744
2017-11-19T08:33:43.825Z,1888
2017-11-19T08:34:24.581Z,1972
2017-11-19T08:35:05.225Z,1568
2017-11-19T08:35:45.809Z,1460
2017-11-19T08:36:26.404Z,1516
2017-11-19T08:37:06.986Z,1748
2017-11-19T08:37:47.563Z,1832
2017-11-19T08:38:28.156Z,1808
2017-11-19T08:39:08.751Z,2180
2017-11-19T08:39:49.324Z,1680
2017-11-19T08:40:29.932Z,1516
2017-11-19T08:41:10.521Z,1240
2017-11-19T08:41:51.116Z,1292
2017-11-19T08:42:31.716Z,1360
2017-11-19T08:43:12.320Z,1612
2017-11-19T08:43:52.930Z,1648
2017-11-19T08:44:33.522Z,1752
2017-11-19T08:45:14.131Z,1832
2017-11-19T08:45:54.706Z,1668
2017-11-19T08:46:35.313Z,2124
2017-11-19T08:47:15.895Z,2408
2017-11-19T08:47:56.488Z,2872
2017-11-19T08:48:37.093Z,2572
2017-11-19T08:49:17.783Z,2120
2017-11-19T08:49:58.315Z,1652
2017-11-19T08:50:38.889Z,1564
2017-11-19T08:51:19.467Z,1700
2017-11-19T08:52:00.051Z,2016
2017-11-19T08:52:40.712Z,2060
2017-11-19T08:53:21.285Z,2020
2017-11-19T08:54:01.912Z,1952
2017-11-19T08:54:42.504Z,1896
2017-11-19T08:55:23.109Z,1932
2017-11-19T08:56:03.726Z,1832
2017-11-19T08:56:44.315Z,1712
2017-11-19T08:57:24.945Z,1676
2017-11-19T08:58:05.561Z,1352
2017-11-19T08:58:46.163Z,1284
2017-11-19T08:59:26.789Z,1440
2017-11-19T09:00:07.387Z,1436
2017-11-19T09:00:48.038Z,1700
2017-11-19T09:01:28.958Z,1612
2017-11-19T09:02:09.617Z,1512
2017-11-19T09:02:50.410Z,1528
2017-11-19T09:03:31.039Z,1728
2017-11-19T09:04:11.648Z,1980
2017-11-19T09:04:52.250Z,1620
2017-11-19T09:05:32.860Z,1628
2017-11-19T09:06:13.444Z,1796
2017-11-19T09:06:54.037Z,1628
2017-11-19T09:07:34.636Z,1676
2017-11-19T09:08:15.215Z,1672
2017-11-19T09:08:55.813Z,1700
2017-11-19T09:09:36.412Z,1624
2017-11-19T09:10:17.009Z,1528
2017-11-19T09:10:57.626Z,1332
2017-11-19T09:11:38.195Z,1128
2017-11-19T09:12:18.777Z,956
2017-11-19T09:12:59.352Z,976
2017-11-19T09:13:39.923Z,972
2017-11-19T09:14:20.492Z,876
2017-11-19T09:15:01.077Z,828
2017-11-19T09:15:41.651Z,784
2017-11-19T09:16:22.285Z,840
2017-11-19T09:17:02.854Z,848
2017-11-19T09:17:43.427Z,944
2017-11-19T09:18:24.031Z,952
2017-11-19T09:19:04.632Z,956
2017-11-19T09:19:45.263Z,940
2017-11-19T09:20:25.839Z,992
2017-11-19T09:21:06.474Z,928
2017-11-19T09:21:47.078Z,916
2017-11-19T09:22:27.639Z,1056
2017-11-19T09:23:08.237Z,1124
2017-11-19T09:23:48.823Z,1208
2017-11-19T09:24:29.408Z,1272
2017-11-19T09:25:09.997Z,1128
2017-11-19T09:25:50.557Z,1152
2017-11-19T09:26:31.122Z,1168
2017-11-19T09:27:11.684Z,1208
2017-11-19T09:27:52.250Z,1332
2017-11-19T09:28:32.818Z,1268
2017-11-19T09:29:13.379Z,1368
2017-11-19T09:31:41.549Z,1000
2017-11-19T09:32:22.157Z,880
2017-11-19T09:33:02.708Z,868
2017-11-19T09:33:43.265Z,852
2017-11-19T09:34:23.849Z,796
2017-11-19T09:35:04.430Z,732
2017-11-19T09:35:44.992Z,724
2017-11-19T09:36:25.584Z,744
2017-11-19T09:37:06.175Z,772
2017-11-19T09:37:46.751Z,788
2017-11-19T09:38:27.317Z,832
2017-11-19T09:39:07.912Z,860
2017-11-19T09:39:48.490Z,824
2017-11-19T09:40:29.050Z,808
2017-11-19T09:41:09.620Z,756
2017-11-19T09:41:50.182Z,796
2017-11-19T09:42:30.744Z,776
2017-11-19T09:43:11.313Z,768
2017-11-19T09:43:51.886Z,704
2017-11-19T09:44:33.041Z,748
2017-11-19T09:45:13.620Z,736